Prestwick, United Kingdom
Current Conditions -  °F | °C
As of 4:50 AM on Tuesday 23 Dec 2014 (Local Time) from EGPK Reporting Station
Light Rain Light Rain  
Wind Chill: 40°   Ceiling: 2600
Heat Index: 45°   Visibility: 5mi
Dew Point: 43°   Wind: 9mph
Humidity: 93%   Direction: 250°WSW
Pressure: 29.68"   Gusts: NA
Location:  55.48°N, 4.62°W
Report Text: EGPK 230450Z 25008KT 220V280 8000 -RA FEW008 BKN026 07/06 Q1005
Loading
Personal Weather Stations






























Interactive Weather Map New forecast layout! Learn more

10-Day Weather Forecast

Advertisements
Track Severe Weather on mobile